Time;durP1;ratioP1;P1;durP2;ratioP2;P2;SDS_P1;SDS_P2;PMS_P1;PMS_P2;Temp;Humidity;BMP_temperature;BMP_pressure;BME280_temperature;BME280_humidity;BME280_pressure;Samples;Min_cycle;Max_cycle;Signal;HPM_P1;HPM_P2
2022/12/31 00:01:32;;;;;;;24.63;5.38;;;11.00;96.40;;;;;;5072145;28;20040;-74
2022/12/31 00:03:57;;;;;;;23.25;5.18;;;11.00;96.70;;;;;;5071967;28;20049;-76
2022/12/31 00:06:27;;;;;;;21.35;4.85;;;11.00;96.70;;;;;;5071905;28;20049;-75
2022/12/31 00:08:54;;;;;;;21.50;5.72;;;11.00;96.70;;;;;;5072099;28;20546;-74
2022/12/31 00:11:21;;;;;;;23.88;6.38;;;11.00;96.80;;;;;;5072332;28;20047;-74
2022/12/31 00:13:46;;;;;;;21.38;5.30;;;11.00;96.80;;;;;;5071926;28;20072;-74
2022/12/31 00:16:15;;;;;;;27.17;5.10;;;11.00;96.80;;;;;;5072106;28;20072;-75
2022/12/31 00:18:46;;;;;;;20.95;4.70;;;11.00;96.80;;;;;;5072298;28;20055;-70
2022/12/31 00:21:13;;;;;;;19.20;4.60;;;11.00;96.70;;;;;;5075778;28;20059;-72
2022/12/31 00:23:39;;;;;;;24.67;4.80;;;11.10;96.70;;;;;;5059269;28;20044;-75
2022/12/31 00:26:10;;;;;;;25.88;5.03;;;11.10;96.90;;;;;;5059322;28;20044;-74
2022/12/31 00:28:37;;;;;;;27.50;5.50;;;11.10;96.80;;;;;;5076023;28;20119;-75
2022/12/31 00:31:15;;;;;;;25.98;5.55;;;11.10;96.60;;;;;;5075819;28;20078;-76
2022/12/31 00:33:42;;;;;;;26.52;5.88;;;11.10;96.70;;;;;;5075583;28;20094;-73
2022/12/31 00:36:19;;;;;;;21.95;4.32;;;11.10;96.90;;;;;;5075474;28;20045;-72
2022/12/31 00:38:47;;;;;;;20.13;5.28;;;11.10;96.90;;;;;;5075478;28;20044;-75
2022/12/31 00:41:14;;;;;;;23.17;5.57;;;11.20;96.70;;;;;;5075493;28;20048;-75
2022/12/31 00:43:40;;;;;;;28.10;5.95;;;11.10;96.70;;;;;;5075282;28;20072;-75
2022/12/31 00:46:07;;;;;;;29.05;4.60;;;11.10;96.70;;;;;;5075272;28;20048;-73
2022/12/31 00:48:33;;;;;;;22.02;4.97;;;11.00;96.80;;;;;;5075456;28;20048;-74
2022/12/31 00:51:00;;;;;;;27.38;6.88;;;11.00;96.80;;;;;;5075436;28;20395;-77
2022/12/31 00:53:26;;;;;;;32.30;6.05;;;11.00;96.90;;;;;;5075151;28;20051;-75
2022/12/31 00:55:57;;;;;;;21.52;5.63;;;11.00;96.70;;;;;;5075134;28;20072;-75
2022/12/31 00:58:23;;;;;;;21.13;4.95;;;11.00;96.80;;;;;;5074690;28;20040;-74
2022/12/31 01:00:49;;;;;;;31.02;6.80;;;11.00;96.70;;;;;;5074396;28;20063;-77
2022/12/31 01:03:14;;;;;;;21.98;4.82;;;10.90;96.80;;;;;;5074413;28;20090;-76
2022/12/31 01:05:40;;;;;;;22.85;5.00;;;10.90;96.80;;;;;;5074336;28;20052;-75
2022/12/31 01:08:06;;;;;;;19.55;3.75;;;10.90;96.80;;;;;;5073293;28;20559;-73
2022/12/31 01:13:15;;;;;;;18.48;4.10;;;10.90;96.80;;;;;;5073570;28;20067;-73
2022/12/31 01:15:41;;;;;;;27.33;4.35;;;10.90;96.80;;;;;;5074589;28;20040;-75
2022/12/31 01:18:07;;;;;;;20.30;5.50;;;10.80;96.80;;;;;;5074458;28;20037;-74
2022/12/31 01:20:39;;;;;;;19.50;4.32;;;10.90;96.90;;;;;;5074266;28;20056;-75
2022/12/31 01:23:06;;;;;;;19.95;4.55;;;10.80;97.10;;;;;;5057766;28;20033;-75
2022/12/31 01:25:36;;;;;;;24.10;4.95;;;10.80;96.80;;;;;;5074681;28;20512;-76
2022/12/31 01:28:03;;;;;;;23.27;3.70;;;10.80;96.80;;;;;;5074634;28;20396;-74
2022/12/31 01:30:29;;;;;;;28.67;4.53;;;10.80;96.80;;;;;;5073266;28;20036;-73
2022/12/31 01:32:55;;;;;;;26.35;4.57;;;10.80;97.00;;;;;;5074227;28;20054;-75
2022/12/31 01:35:21;;;;;;;16.50;3.97;;;10.80;96.90;;;;;;5074300;28;20043;-72
2022/12/31 01:37:47;;;;;;;28.25;5.25;;;10.80;96.90;;;;;;5074236;28;20052;-72
2022/12/31 01:40:12;;;;;;;16.75;4.10;;;10.90;97.00;;;;;;5074402;28;20408;-73
2022/12/31 01:42:38;;;;;;;21.92;3.60;;;10.80;97.00;;;;;;5074259;28;20045;-71
2022/12/31 01:45:10;;;;;;;25.20;4.95;;;10.80;97.10;;;;;;5074028;28;20048;-73
2022/12/31 01:47:44;;;;;;;20.23;4.50;;;10.80;97.10;;;;;;5073769;28;20124;-74
2022/12/31 01:50:16;;;;;;;21.45;5.45;;;10.80;97.20;;;;;;5074348;28;20075;-73
2022/12/31 01:52:45;;;;;;;21.23;4.82;;;10.80;97.10;;;;;;5073925;28;20040;-73
2022/12/31 01:55:41;;;;;;;20.30;4.13;;;10.80;97.30;;;;;;5073866;28;20047;-74
2022/12/31 01:58:14;;;;;;;22.30;4.43;;;10.80;97.20;;;;;;5073262;28;20079;-76
2022/12/31 02:00:41;;;;;;;20.33;5.78;;;10.80;97.20;;;;;;5074234;28;20501;-75
2022/12/31 02:03:07;;;;;;;20.17;5.82;;;10.80;97.30;;;;;;5075022;28;20182;-72
2022/12/31 02:06:02;;;;;;;18.77;5.35;;;10.80;97.20;;;;;;5073916;28;20115;-73
2022/12/31 02:08:27;;;;;;;14.13;4.13;;;10.80;97.40;;;;;;5073488;28;20044;-72
2022/12/31 02:10:53;;;;;;;16.98;4.78;;;10.80;97.30;;;;;;5073508;28;20051;-76
2022/12/31 02:13:19;;;;;;;27.02;7.00;;;10.80;97.30;;;;;;5073759;28;20093;-72
2022/12/31 02:15:51;;;;;;;20.15;5.20;;;10.80;97.20;;;;;;5056755;28;20044;-74
2022/12/31 02:18:31;;;;;;;21.05;6.28;;;10.80;97.30;;;;;;5073254;28;20055;-75
2022/12/31 02:21:16;;;;;;;21.85;6.25;;;10.80;97.20;;;;;;5073456;28;20048;-73
2022/12/31 02:24:03;;;;;;;20.70;5.03;;;10.80;97.20;;;;;;5073551;28;20052;-73
2022/12/31 02:26:48;;;;;;;22.95;4.57;;;10.80;97.20;;;;;;5073520;28;20131;-74
2022/12/31 02:29:51;;;;;;;22.90;5.40;;;10.80;97.30;;;;;;5073859;28;20369;-70
2022/12/31 02:32:28;;;;;;;16.55;4.82;;;10.70;97.50;;;;;;5073613;28;20120;-74
2022/12/31 02:35:05;;;;;;;20.80;5.60;;;10.70;97.30;;;;;;5073734;28;20047;-72
2022/12/31 02:37:32;;;;;;;16.05;4.20;;;10.70;97.30;;;;;;5073688;28;20408;-75
2022/12/31 02:39:58;;;;;;;16.17;4.25;;;10.70;97.30;;;;;;5073233;28;20101;-77
2022/12/31 02:42:24;;;;;;;12.93;3.95;;;10.70;97.40;;;;;;5056628;28;20048;-72
2022/12/31 02:44:50;;;;;;;17.33;5.03;;;10.70;97.40;;;;;;5073299;28;20058;-72
2022/12/31 02:47:54;;;;;;;20.65;4.43;;;10.60;97.30;;;;;;5074337;28;20080;-72
2022/12/31 02:50:54;;;;;;;24.07;4.80;;;10.60;97.30;;;;;;5073455;28;20040;-74
2022/12/31 02:53:28;;;;;;;20.17;4.03;;;10.60;97.30;;;;;;5073230;28;20119;-76
2022/12/31 02:55:57;;;;;;;;;;;10.50;97.30;;;;;;5073615;28;20044;-72
2022/12/31 03:04:32;;;;;;;14.73;3.67;;;10.30;97.40;;;;;;5073155;28;20052;-76
2022/12/31 03:07:06;;;;;;;17.33;4.25;;;10.20;97.40;;;;;;5072872;28;20045;-74
2022/12/31 03:09:32;;;;;;;12.52;3.17;;;10.10;97.50;;;;;;5073003;28;20095;-74
2022/12/31 03:14:43;;;;;;;17.73;4.75;;;10.10;97.50;;;;;;5073111;28;20044;-72
2022/12/31 03:17:09;;;;;;;14.90;3.92;;;10.00;97.50;;;;;;5072882;28;20484;-75
2022/12/31 03:22:28;;;;;;;18.00;3.50;;;10.00;97.60;;;;;;5072776;28;20098;-71
2022/12/31 03:27:46;;;;;;;15.43;2.80;;;10.00;97.60;;;;;;5072555;28;20056;-72
2022/12/31 03:30:14;;;;;;;18.63;3.35;;;10.00;97.70;;;;;;5072846;28;20058;-72
2022/12/31 03:32:41;;;;;;;12.35;2.90;;;10.00;97.70;;;;;;5055697;28;20036;-75
2022/12/31 03:35:07;;;;;;;12.90;2.70;;;10.10;97.70;;;;;;5072532;28;20384;-73
2022/12/31 03:37:33;;;;;;;16.13;3.53;;;10.10;97.60;;;;;;5072445;28;20119;-73
2022/12/31 03:39:59;;;;;;;16.40;3.92;;;10.10;97.60;;;;;;5072281;28;20202;-72
2022/12/31 03:42:25;;;;;;;15.98;3.00;;;10.10;97.60;;;;;;5072195;28;20044;-73
2022/12/31 03:44:50;;;;;;;15.82;3.95;;;10.10;97.70;;;;;;5072580;28;20089;-77
2022/12/31 03:47:16;;;;;;;15.18;3.20;;;10.10;97.70;;;;;;5072160;28;20507;-75
2022/12/31 03:49:42;;;;;;;15.57;4.07;;;10.10;97.80;;;;;;5072221;28;20040;-72
2022/12/31 03:52:07;;;;;;;13.68;3.03;;;10.10;97.80;;;;;;5055589;28;20044;-71
2022/12/31 03:54:33;;;;;;;14.02;2.60;;;10.10;97.70;;;;;;5054853;28;20059;-76
2022/12/31 03:56:59;;;;;;;15.65;3.30;;;10.10;97.70;;;;;;5072447;28;20040;-73
2022/12/31 03:59:25;;;;;;;10.40;2.20;;;10.20;97.70;;;;;;5072187;28;20485;-74
2022/12/31 04:01:50;;;;;;;12.95;2.63;;;10.10;97.70;;;;;;5072121;28;20045;-74
2022/12/31 04:04:16;;;;;;;8.73;2.22;;;10.10;97.70;;;;;;5072214;28;20123;-73
2022/12/31 04:06:42;;;;;;;12.88;2.25;;;10.10;97.60;;;;;;5071862;28;20045;-73
2022/12/31 04:09:07;;;;;;;11.07;2.30;;;10.10;97.70;;;;;;5071873;28;20075;-73
2022/12/31 04:11:33;;;;;;;13.77;3.60;;;10.00;97.80;;;;;;5055130;28;20036;-75
2022/12/31 04:13:59;;;;;;;11.45;3.05;;;10.00;97.80;;;;;;5071826;28;20048;-71
2022/12/31 04:16:24;;;;;;;6.28;2.55;;;10.00;97.80;;;;;;5071833;28;20040;-74
2022/12/31 04:18:50;;;;;;;10.13;2.35;;;10.00;97.60;;;;;;5072060;28;20055;-73
2022/12/31 04:21:16;;;;;;;9.68;2.45;;;10.00;97.60;;;;;;5071627;28;20068;-71
2022/12/31 04:23:41;;;;;;;11.07;2.33;;;9.90;97.60;;;;;;5071764;28;20551;-73
2022/12/31 04:26:07;;;;;;;9.43;2.20;;;9.90;97.60;;;;;;5071532;28;20049;-76
2022/12/31 04:28:33;;;;;;;8.90;2.25;;;9.90;97.60;;;;;;5071895;28;20041;-72
2022/12/31 04:30:58;;;;;;;10.07;2.60;;;9.90;97.90;;;;;;5071728;28;20603;-75
2022/12/31 04:33:24;;;;;;;12.85;3.22;;;9.90;97.90;;;;;;5071667;28;20044;-75
2022/12/31 04:35:50;;;;;;;12.00;2.78;;;9.90;97.90;;;;;;5071654;28;20040;-76
2022/12/31 04:38:15;;;;;;;12.70;3.10;;;9.90;98.10;;;;;;5071568;28;20051;-75
2022/12/31 04:43:28;;;;;;;16.50;3.70;;;9.90;97.70;;;;;;5071550;28;20125;-72
2022/12/31 04:45:53;;;;;;;10.48;2.67;;;9.90;97.70;;;;;;5071492;28;20068;-74
2022/12/31 04:48:19;;;;;;;10.60;3.17;;;9.90;97.60;;;;;;5054882;28;20047;-75
2022/12/31 04:50:46;;;;;;;13.07;3.22;;;9.90;97.50;;;;;;5071506;28;20044;-73
2022/12/31 04:53:11;;;;;;;14.63;2.83;;;9.90;97.50;;;;;;5055320;28;20123;-75
2022/12/31 04:55:37;;;;;;;18.38;3.70;;;9.90;97.50;;;;;;5071838;28;20131;-73
2022/12/31 04:58:03;;;;;;;10.35;2.65;;;9.90;97.80;;;;;;5054808;28;20036;-73
2022/12/31 05:00:29;;;;;;;13.48;4.20;;;9.80;97.80;;;;;;5071744;28;20514;-73
2022/12/31 05:02:55;;;;;;;8.18;2.30;;;9.80;97.90;;;;;;5055046;28;20135;-73
2022/12/31 05:05:20;;;;;;;13.35;3.15;;;9.80;97.90;;;;;;5073010;28;20442;-73
2022/12/31 05:07:46;;;;;;;11.05;3.08;;;9.80;98.00;;;;;;5074810;28;20067;-76
2022/12/31 05:10:11;;;;;;;15.38;3.20;;;9.70;98.00;;;;;;5075110;28;20032;-74
2022/12/31 05:12:37;;;;;;;10.63;3.33;;;9.70;97.80;;;;;;5074841;28;20411;-75
2022/12/31 05:15:03;;;;;;;11.88;3.95;;;9.70;98.00;;;;;;5075045;28;20047;-72
2022/12/31 05:17:29;;;;;;;13.88;4.07;;;9.70;98.00;;;;;;5074822;28;20484;-73
2022/12/31 05:19:54;;;;;;;14.63;4.07;;;9.70;98.20;;;;;;5074927;28;20044;-77
2022/12/31 05:22:29;;;;;;;12.68;5.28;;;9.70;98.00;;;;;;5074668;28;20052;-76
2022/12/31 05:24:55;;;;;;;;;;;9.70;98.10;;;;;;5075408;28;20405;-74
2022/12/31 05:27:21;;;;;;;11.45;4.85;;;9.70;98.50;;;;;;5074396;28;20003;-75
2022/12/31 05:29:47;;;;;;;13.07;5.43;;;9.70;98.60;;;;;;5074533;28;20040;-74
2022/12/31 05:32:13;;;;;;;14.07;4.47;;;9.70;98.20;;;;;;5058102;28;20036;-74
2022/12/31 05:34:39;;;;;;;17.23;5.20;;;9.70;98.40;;;;;;5057670;28;20484;-72
2022/12/31 05:37:05;;;;;;;18.15;5.95;;;9.70;98.50;;;;;;5057540;28;20120;-77
2022/12/31 05:39:30;;;;;;;9.88;4.43;;;9.80;98.10;;;;;;5074137;28;20044;-74
2022/12/31 05:41:56;;;;;;;12.38;4.32;;;9.80;98.10;;;;;;5074107;28;20487;-73
2022/12/31 05:44:22;;;;;;;10.85;4.28;;;9.80;98.30;;;;;;5057378;28;20044;-76
2022/12/31 05:46:47;;;;;;;10.30;3.92;;;9.80;98.30;;;;;;5073996;28;20127;-74
2022/12/31 05:49:13;;;;;;;12.90;5.13;;;9.90;98.50;;;;;;5073978;28;20037;-77
2022/12/31 05:51:39;;;;;;;21.35;8.93;;;9.90;98.70;;;;;;5057705;28;20032;-74
2022/12/31 05:54:04;;;;;;;22.95;7.30;;;10.00;98.40;;;;;;5058159;28;20044;-76
2022/12/31 05:56:30;;;;;;;18.42;7.78;;;10.00;98.40;;;;;;5058139;28;20526;-75
2022/12/31 05:58:56;;;;;;;14.77;7.97;;;10.10;98.70;;;;;;5074358;28;20048;-77
2022/12/31 06:01:22;;;;;;;19.58;8.48;;;10.10;98.50;;;;;;5074238;28;20055;-75
2022/12/31 06:03:47;;;;;;;18.52;8.73;;;10.10;98.80;;;;;;5074576;28;20110;-75
2022/12/31 06:06:13;;;;;;;17.02;8.93;;;10.10;98.60;;;;;;5073965;28;20123;-76
2022/12/31 06:08:39;;;;;;;14.57;8.27;;;10.00;98.70;;;;;;5073866;28;20039;-76
2022/12/31 06:11:04;;;;;;;14.70;7.88;;;10.00;98.80;;;;;;5074382;28;20097;-74
2022/12/31 06:13:30;;;;;;;11.82;7.05;;;10.00;98.70;;;;;;5074184;28;20048;-72
2022/12/31 06:15:56;;;;;;;12.07;7.10;;;10.00;99.20;;;;;;5073829;28;20496;-77
2022/12/31 06:18:21;;;;;;;10.27;6.25;;;10.00;98.80;;;;;;5073451;28;20106;-71
2022/12/31 06:20:47;;;;;;;11.73;5.97;;;10.00;98.70;;;;;;5073691;28;20048;-76
2022/12/31 06:23:13;;;;;;;11.45;6.95;;;10.00;98.70;;;;;;5074198;28;20511;-75
2022/12/31 06:25:38;;;;;;;12.73;7.53;;;10.00;98.70;;;;;;5073759;28;20401;-74
2022/12/31 06:28:05;;;;;;;11.18;7.00;;;10.00;98.90;;;;;;5073769;28;20048;-74
2022/12/31 06:30:30;;;;;;;14.52;8.52;;;10.00;99.00;;;;;;5074056;28;20040;-74
2022/12/31 06:32:56;;;;;;;12.60;7.28;;;10.00;99.00;;;;;;5073626;28;20473;-77
2022/12/31 06:35:22;;;;;;;12.20;7.32;;;9.90;99.00;;;;;;5057264;28;20040;-75
2022/12/31 06:37:48;;;;;;;10.60;6.65;;;9.90;99.10;;;;;;5073374;28;20480;-75
2022/12/31 06:40:13;;;;;;;11.45;6.25;;;9.90;98.80;;;;;;5073564;28;20040;-75
2022/12/31 06:42:41;;;;;;;9.60;5.10;;;9.90;98.80;;;;;;5057067;28;20098;-72
2022/12/31 06:45:07;;;;;;;10.93;5.63;;;9.90;98.70;;;;;;5073478;28;20127;-73
2022/12/31 06:47:32;;;;;;;12.52;6.70;;;9.90;98.60;;;;;;5073191;28;20045;-72
2022/12/31 06:49:58;;;;;;;11.30;5.85;;;9.80;98.60;;;;;;5073528;28;20484;-73
2022/12/31 06:52:24;;;;;;;13.85;6.43;;;9.70;98.70;;;;;;5073331;28;20087;-75
2022/12/31 06:54:50;;;;;;;13.27;6.28;;;9.70;98.80;;;;;;5073267;28;20571;-75
2022/12/31 06:57:16;;;;;;;12.48;6.82;;;9.80;98.80;;;;;;5073082;28;20480;-76
2022/12/31 06:59:43;;;;;;;16.38;7.55;;;9.70;98.70;;;;;;5073059;28;20048;-71
2022/12/31 07:02:30;;;;;;;14.88;7.78;;;9.70;98.80;;;;;;5073340;28;20488;-75
2022/12/31 07:05:35;;;;;;;13.20;8.55;;;9.70;98.70;;;;;;5073416;28;20378;-75
2022/12/31 07:08:27;;;;;;;13.43;8.25;;;9.60;98.80;;;;;;5061987;28;20056;-75
2022/12/31 07:11:04;;;;;;;15.15;8.13;;;9.60;98.80;;;;;;5073195;28;20421;-74
2022/12/31 07:13:51;;;;;;;15.02;8.27;;;9.50;98.90;;;;;;5073079;28;20401;-73
2022/12/31 07:16:38;;;;;;;16.45;9.02;;;9.50;98.90;;;;;;5073300;28;20093;-76
2022/12/31 07:19:20;;;;;;;16.85;10.20;;;9.50;99.00;;;;;;5055984;28;20045;-77
2022/12/31 07:21:48;;;;;;;14.82;9.57;;;9.40;99.10;;;;;;5072851;28;20061;-72
2022/12/31 07:24:14;;;;;;;14.00;10.43;;;9.40;99.10;;;;;;5072807;28;20040;-76
2022/12/31 07:27:01;;;;;;;14.65;9.63;;;9.40;99.10;;;;;;5072567;28;20489;-73
2022/12/31 07:29:43;;;;;;;12.75;8.38;;;9.30;99.10;;;;;;5072161;28;20041;-74
2022/12/31 07:32:36;;;;;;;16.95;10.73;;;9.40;98.90;;;;;;5072280;28;20477;-76
2022/12/31 07:35:07;;;;;;;15.82;10.02;;;9.40;99.00;;;;;;5072649;28;20115;-75
2022/12/31 07:37:54;;;;;;;11.60;7.35;;;9.40;99.20;;;;;;5055758;28;20044;-73
2022/12/31 07:40:59;;;;;;;12.63;7.78;;;9.40;99.20;;;;;;5055833;28;20040;-75
2022/12/31 07:43:24;;;;;;;;;;;9.40;99.40;;;;;;5072909;28;20036;-74
2022/12/31 07:46:12;;;;;;;9.00;6.32;;;9.40;99.40;;;;;;5072335;28;19928;-76
2022/12/31 07:48:38;;;;;;;10.35;7.07;;;9.40;99.40;;;;;;5055662;28;20045;-73
2022/12/31 07:51:04;;;;;;;10.07;6.63;;;9.50;99.40;;;;;;5072487;28;20071;-75
2022/12/31 07:53:30;;;;;;;12.20;7.38;;;9.50;99.60;;;;;;5072823;28;20481;-76
2022/12/31 07:55:58;;;;;;;9.63;6.55;;;9.60;99.40;;;;;;5072568;28;20051;-75
2022/12/31 07:58:39;;;;;;;9.43;6.97;;;9.60;99.60;;;;;;5072205;28;20062;-74
2022/12/31 08:01:14;;;;;;;10.75;6.53;;;9.50;99.50;;;;;;5072340;28;20183;-75
2022/12/31 08:04:13;;;;;;;10.15;6.07;;;9.60;99.50;;;;;;5072264;28;20210;-77
2022/12/31 08:06:50;;;;;;;8.48;6.38;;;9.60;99.70;;;;;;5071853;28;20044;-75
2022/12/31 08:09:33;;;;;;;10.18;7.22;;;9.60;99.80;;;;;;5072194;28;20503;-73
2022/12/31 08:12:00;;;;;;;7.55;6.13;;;9.60;99.70;;;;;;5071853;28;20040;-75
2022/12/31 08:14:28;;;;;;;7.80;5.82;;;9.80;99.90;;;;;;5072058;28;20040;-74
2022/12/31 08:16:54;;;;;;;8.15;6.10;;;9.80;99.90;;;;;;5071800;28;20515;-74
2022/12/31 08:19:27;;;;;;;8.18;6.25;;;10.00;99.90;;;;;;5072114;28;20048;-73
2022/12/31 08:21:59;;;;;;;7.25;6.30;;;10.10;99.90;;;;;;5071644;28;20131;-76
2022/12/31 08:24:36;;;;;;;8.50;6.45;;;10.10;99.90;;;;;;5072191;28;20052;-74
2022/12/31 08:27:27;;;;;;;7.80;6.70;;;10.10;99.80;;;;;;5071701;28;20047;-73
2022/12/31 08:29:56;;;;;;;8.13;6.57;;;10.20;99.90;;;;;;5071396;28;20047;-72
2022/12/31 08:32:49;;;;;;;10.07;7.28;;;10.30;99.90;;;;;;5071365;28;20032;-74
2022/12/31 08:35:18;;;;;;;8.93;6.70;;;10.40;99.80;;;;;;5071408;28;20044;-75
2022/12/31 08:37:53;;;;;;;11.98;8.40;;;10.40;99.90;;;;;;5071485;28;20080;-74
2022/12/31 08:40:29;;;;;;;11.77;8.52;;;10.50;99.90;;;;;;5073018;28;20044;-78
2022/12/31 08:43:10;;;;;;;11.27;8.48;;;10.60;99.90;;;;;;5075302;28;20556;-73
2022/12/31 08:45:49;;;;;;;12.23;9.20;;;10.60;99.90;;;;;;5075176;28;20047;-75
2022/12/31 08:48:26;;;;;;;13.05;10.90;;;10.70;99.90;;;;;;5074935;28;20041;-76
2022/12/31 08:50:53;;;;;;;10.65;8.75;;;10.70;99.90;;;;;;5075083;28;20048;-75
2022/12/31 08:53:19;;;;;;;10.27;8.27;;;10.80;99.60;;;;;;5075038;28;20040;-77
2022/12/31 08:55:46;;;;;;;15.43;10.98;;;10.90;99.80;;;;;;5075240;28;20365;-76
2022/12/31 08:58:32;;;;;;;16.38;12.73;;;10.90;99.60;;;;;;5075130;28;20489;-75
2022/12/31 09:00:58;;;;;;;17.15;11.27;;;10.90;99.70;;;;;;5074925;28;20123;-76
2022/12/31 09:03:47;;;;;;;16.55;13.15;;;11.00;99.60;;;;;;5058637;28;20098;-77
2022/12/31 09:06:30;;;;;;;16.83;11.23;;;11.00;99.70;;;;;;5074661;28;20051;-77
2022/12/31 09:09:11;;;;;;;17.08;12.57;;;11.00;99.60;;;;;;5074753;28;20488;-75
2022/12/31 09:11:55;;;;;;;14.85;9.15;;;10.90;99.50;;;;;;5074645;28;20082;-76
2022/12/31 09:14:32;;;;;;;12.13;8.30;;;10.90;99.40;;;;;;5074706;28;20518;-75
2022/12/31 09:17:09;;;;;;;11.43;5.95;;;11.00;99.60;;;;;;5074811;28;20274;-77
2022/12/31 09:19:35;;;;;;;10.88;4.88;;;11.10;99.60;;;;;;5074829;28;20432;-77
2022/12/31 09:22:01;;;;;;;11.63;3.40;;;11.10;99.70;;;;;;5074347;28;20067;-76
2022/12/31 09:24:27;;;;;;;8.13;3.40;;;11.30;99.50;;;;;;5074511;28;20048;-77
2022/12/31 09:27:11;;;;;;;6.65;3.65;;;11.40;99.50;;;;;;5057633;28;20097;-76
2022/12/31 09:30:08;;;;;;;8.82;3.10;;;11.40;99.50;;;;;;5074645;28;20503;-72
2022/12/31 09:32:43;;;;;;;8.88;2.65;;;11.40;99.20;;;;;;5072960;28;20063;-72
2022/12/31 09:35:29;;;;;;;8.13;2.90;;;11.50;99.30;;;;;;5074295;28;20037;-78
2022/12/31 09:38:04;;;;;;;9.23;3.75;;;11.50;99.30;;;;;;5074199;28;20041;-77
2022/12/31 09:40:39;;;;;;;4.50;1.70;;;11.60;99.20;;;;;;5074221;28;20127;-76
2022/12/31 09:43:40;;;;;;;4.65;2.03;;;11.70;99.20;;;;;;5074093;28;20044;-73
2022/12/31 09:46:30;;;;;;;6.35;2.33;;;11.80;99.00;;;;;;5062510;28;20053;-75
2022/12/31 09:49:15;;;;;;;5.38;1.95;;;11.90;98.90;;;;;;5073952;28;20511;-73
2022/12/31 09:51:52;;;;;;;6.22;1.80;;;12.00;98.90;;;;;;5056139;28;20135;-77
2022/12/31 09:54:41;;;;;;;3.88;1.20;;;12.00;98.60;;;;;;5074046;28;20045;-73
2022/12/31 09:57:48;;;;;;;9.95;3.88;;;12.00;98.60;;;;;;5073816;28;20158;-74
2022/12/31 10:00:41;;;;;;;11.77;5.43;;;12.10;98.40;;;;;;5073894;28;20044;-77
2022/12/31 10:03:35;;;;;;;8.57;2.50;;;12.10;98.30;;;;;;5073759;28;20519;-77
2022/12/31 10:06:27;;;;;;;14.73;4.45;;;12.20;97.60;;;;;;5073941;28;20084;-75
2022/12/31 10:09:40;;;;;;;11.00;2.50;;;12.30;97.70;;;;;;5074086;28;20040;-76
2022/12/31 10:12:41;;;;;;;7.57;2.65;;;12.40;97.50;;;;;;5072045;28;20071;-76
2022/12/31 10:15:26;;;;;;;15.73;5.88;;;12.40;97.10;;;;;;5073622;28;20047;-74
2022/12/31 10:18:15;;;;;;;12.57;2.95;;;12.50;97.00;;;;;;5073403;28;20048;-75
2022/12/31 10:21:09;;;;;;;27.23;13.38;;;12.50;96.40;;;;;;5073238;28;20060;-77
2022/12/31 10:23:56;;;;;;;14.20;3.83;;;12.50;96.00;;;;;;5073397;28;20056;-77
2022/12/31 10:26:48;;;;;;;12.80;3.22;;;12.60;95.70;;;;;;5073491;28;20041;-73
2022/12/31 10:29:23;;;;;;;12.82;3.70;;;12.60;95.40;;;;;;5073570;28;20423;-75
2022/12/31 10:31:52;;;;;;;8.45;2.00;;;12.50;95.30;;;;;;5073177;28;20041;-75
2022/12/31 10:34:43;;;;;;;11.23;2.97;;;12.60;95.40;;;;;;5073174;28;20089;-75
2022/12/31 10:37:16;;;;;;;13.43;3.17;;;12.70;95.00;;;;;;5073050;28;20060;-75
2022/12/31 10:40:08;;;;;;;11.00;2.90;;;12.70;95.10;;;;;;5056387;28;20044;-74
2022/12/31 10:42:52;;;;;;;13.25;3.10;;;12.70;94.80;;;;;;5072995;28;20049;-78
2022/12/31 10:45:27;;;;;;;20.55;6.43;;;12.70;94.60;;;;;;5056339;28;20052;-75
2022/12/31 10:48:05;;;;;;;12.93;3.45;;;12.80;94.60;;;;;;5072693;28;20132;-76
2022/12/31 10:50:55;;;;;;;21.63;6.15;;;12.80;94.60;;;;;;5072861;28;20046;-78
2022/12/31 10:53:54;;;;;;;20.88;5.93;;;12.80;94.20;;;;;;5072692;28;20043;-75
2022/12/31 10:56:41;;;;;;;18.27;7.20;;;12.80;94.20;;;;;;5072309;28;20048;-78
2022/12/31 10:59:22;;;;;;;17.10;5.68;;;12.90;94.20;;;;;;5072904;28;20080;-76
2022/12/31 11:01:59;;;;;;;16.35;4.30;;;12.90;94.20;;;;;;5072622;28;20102;-75
2022/12/31 11:04:46;;;;;;;17.10;4.78;;;12.90;94.10;;;;;;5072375;28;20058;-73
2022/12/31 11:07:26;;;;;;;22.20;6.40;;;12.90;94.20;;;;;;5072365;28;20492;-74
2022/12/31 11:10:26;;;;;;;16.73;3.67;;;12.90;94.20;;;;;;5072947;28;20127;-74
2022/12/31 11:12:57;;;;;;;20.75;5.05;;;12.90;94.10;;;;;;5072421;28;20041;-73
2022/12/31 11:15:38;;;;;;;19.42;3.28;;;12.90;94.20;;;;;;5072384;28;20080;-73
2022/12/31 11:18:42;;;;;;;15.90;5.00;;;12.90;94.40;;;;;;5072299;28;20036;-73
2022/12/31 11:21:16;;;;;;;20.77;3.42;;;12.90;94.50;;;;;;5072105;28;20060;-74
2022/12/31 11:24:26;;;;;;;10.95;3.50;;;12.90;94.10;;;;;;5072494;28;20448;-77
2022/12/31 11:26:54;;;;;;;13.88;4.35;;;12.90;94.20;;;;;;5066855;28;20052;-72
2022/12/31 11:29:41;;;;;;;14.40;3.53;;;12.80;94.40;;;;;;5072057;28;20036;-73
2022/12/31 11:32:32;;;;;;;22.17;4.82;;;12.80;94.70;;;;;;5072105;28;20041;-75
2022/12/31 11:35:18;;;;;;;14.68;3.75;;;12.90;94.60;;;;;;5071961;28;20040;-76
2022/12/31 11:37:43;;;;;;;20.60;3.70;;;12.80;94.90;;;;;;5072146;28;20062;-78
2022/12/31 11:40:31;;;;;;;12.85;3.70;;;12.80;95.00;;;;;;5071945;28;20532;-76
2022/12/31 11:43:15;;;;;;;23.23;6.32;;;12.90;95.40;;;;;;5071904;28;20036;-76
2022/12/31 11:46:06;;;;;;;43.15;8.95;;;13.00;95.40;;;;;;5071857;28;20041;-73
2022/12/31 11:49:05;;;;;;;17.60;5.90;;;13.00;95.60;;;;;;5055468;28;20059;-73
2022/12/31 11:52:05;;;;;;;17.80;4.32;;;13.00;95.80;;;;;;5037868;28;20056;-78
2022/12/31 11:54:49;;;;;;;13.38;3.45;;;13.00;95.90;;;;;;5072050;28;20519;-75
2022/12/31 11:57:35;;;;;;;21.40;5.38;;;13.10;96.10;;;;;;5071989;28;20381;-74
2022/12/31 12:00:22;;;;;;;14.73;3.42;;;13.10;96.00;;;;;;5055525;28;20454;-76
2022/12/31 12:02:52;;;;;;;19.67;4.97;;;13.10;96.30;;;;;;5071137;28;20123;-75
2022/12/31 12:05:21;;;;;;;8.88;2.65;;;13.10;96.30;;;;;;5070346;28;20040;-72
2022/12/31 12:07:49;;;;;;;49.08;17.02;;;13.10;96.20;;;;;;5071493;28;20508;-75
2022/12/31 12:10:35;;;;;;;17.75;5.65;;;13.10;96.20;;;;;;5071550;28;20055;-73
2022/12/31 12:13:26;;;;;;;16.98;3.78;;;13.00;96.20;;;;;;5067562;28;20048;-74
2022/12/31 12:16:00;;;;;;;25.45;7.05;;;13.00;96.20;;;;;;5077043;28;20119;-75
2022/12/31 12:18:35;;;;;;;21.85;6.03;;;13.00;96.30;;;;;;5078219;28;20040;-73
2022/12/31 12:21:04;;;;;;;;;;;13.00;96.40;;;;;;5078338;28;20053;-76
2022/12/31 12:23:31;;;;;;;18.98;5.07;;;13.00;96.40;;;;;;5078148;28;19970;-75
2022/12/31 12:25:57;;;;;;;31.52;11.38;;;13.00;96.50;;;;;;5078583;28;20048;-72
2022/12/31 12:28:26;;;;;;;20.08;5.30;;;13.00;96.40;;;;;;5078044;28;20510;-74
2022/12/31 12:30:53;;;;;;;23.50;9.15;;;13.00;96.30;;;;;;5078257;28;20036;-75
2022/12/31 12:33:20;;;;;;;18.65;6.70;;;12.90;96.30;;;;;;5078077;28;20048;-74
2022/12/31 12:35:46;;;;;;;20.20;6.53;;;12.90;96.20;;;;;;5061348;28;20070;-75
2022/12/31 12:38:21;;;;;;;17.42;6.50;;;12.90;96.30;;;;;;5061251;28;20117;-72
2022/12/31 12:41:02;;;;;;;19.13;4.35;;;12.90;96.20;;;;;;5078172;28;20048;-75
2022/12/31 12:43:36;;;;;;;23.80;6.85;;;13.00;96.00;;;;;;5078027;28;20051;-74
2022/12/31 12:46:06;;;;;;;19.17;4.70;;;13.00;95.80;;;;;;5077982;28;20051;-75
2022/12/31 12:48:44;;;;;;;17.38;5.28;;;12.90;95.80;;;;;;5061419;28;20071;-75
2022/12/31 12:51:10;;;;;;;32.75;10.55;;;13.00;95.80;;;;;;5061619;28;20067;-75
2022/12/31 12:54:04;;;;;;;21.95;4.93;;;12.90;95.90;;;;;;5077835;28;20047;-76
2022/12/31 12:56:51;;;;;;;17.17;4.72;;;12.90;95.70;;;;;;5077967;28;20051;-75
2022/12/31 13:00:00;;;;;;;20.20;5.38;;;12.80;95.50;;;;;;5077906;28;20037;-74
2022/12/31 13:02:50;;;;;;;18.65;4.50;;;12.80;95.40;;;;;;5061382;28;20036;-73
2022/12/31 13:05:23;;;;;;;19.42;4.53;;;12.70;95.40;;;;;;5061342;28;20117;-75
2022/12/31 13:08:14;;;;;;;25.77;6.47;;;12.80;95.40;;;;;;5077733;28;20059;-75
2022/12/31 13:11:28;;;;;;;16.70;4.28;;;12.70;95.40;;;;;;5076085;28;20294;-74
2022/12/31 13:14:00;;;;;;;13.70;4.00;;;12.80;95.10;;;;;;5072068;28;20055;-75
2022/12/31 13:16:51;;;;;;;15.95;3.33;;;12.70;95.10;;;;;;5077138;28;20052;-74
2022/12/31 13:19:48;;;;;;;16.77;3.53;;;12.80;94.80;;;;;;5077415;28;20079;-74
2022/12/31 13:22:20;;;;;;;17.48;5.43;;;12.70;94.90;;;;;;5076869;28;20052;-76
2022/12/31 13:25:14;;;;;;;16.42;3.72;;;12.60;95.10;;;;;;5077186;28;20040;-75
2022/12/31 13:27:43;;;;;;;14.93;4.22;;;12.60;95.20;;;;;;5074414;28;20068;-74
2022/12/31 13:30:32;;;;;;;18.10;4.05;;;12.70;94.90;;;;;;5074609;28;20396;-75
2022/12/31 13:33:13;;;;;;;17.52;4.35;;;12.60;95.50;;;;;;5074467;28;20044;-75
2022/12/31 13:35:55;;;;;;;16.48;4.72;;;12.50;95.60;;;;;;5074292;28;20044;-75
2022/12/31 13:38:35;;;;;;;17.15;4.55;;;12.50;95.70;;;;;;5074251;28;20052;-75